Cranleigh, United Kingdom
Current Conditions -  °F | °C
As of 6:20 PM on Thursday 29 Jan 2015 (Local Time) from EGKK Reporting Station
Scattered Clouds Scattered Clouds  
Wind Chill: 26°   Ceiling: Unl
Heat Index: 36°   Visibility: 6mi
Dew Point: 32°   Wind: 15mph
Humidity: 87%   Direction: 300°WNW
Pressure: 28.88"   Gusts: NA
Location:  51.14°N, 0.48°W
Report Text: EGKK 291820Z 30013KT 9999 FEW013 SCT018 02/M00 Q0978
Loading
Personal Weather Stations






























Interactive Weather Map New forecast layout! Learn more

10-Day Weather Forecast

Advertisements
Track Severe Weather on mobile